sensor_id;sensor_type;location;lat;lon;timestamp;temperature;humidity
73576;DHT22;61859;49.204;8.140;2024-03-02T00:01:06;2.70;99.90
73576;DHT22;61859;49.204;8.140;2024-03-02T00:03:32;2.50;99.90
73576;DHT22;61859;49.204;8.140;2024-03-02T00:05:59;2.50;99.90
73576;DHT22;61859;49.204;8.140;2024-03-02T00:08:25;2.60;99.90
73576;DHT22;61859;49.204;8.140;2024-03-02T00:10:57;2.40;99.90
73576;DHT22;61859;49.204;8.140;2024-03-02T00:13:23;2.50;99.90
73576;DHT22;61859;49.204;8.140;2024-03-02T00:15:53;2.50;99.90
73576;DHT22;61859;49.204;8.140;2024-03-02T00:18:30;2.40;99.90
73576;DHT22;61859;49.204;8.140;2024-03-02T00:20:56;2.30;99.90
73576;DHT22;61859;49.204;8.140;2024-03-02T00:23:23;2.40;99.90
73576;DHT22;61859;49.204;8.140;2024-03-02T00:25:51;2.20;99.90
73576;DHT22;61859;49.204;8.140;2024-03-02T00:28:26;2.20;99.90
73576;DHT22;61859;49.204;8.140;2024-03-02T00:30:59;2.20;99.90
73576;DHT22;61859;49.204;8.140;2024-03-02T00:33:34;2.30;99.90
73576;DHT22;61859;49.204;8.140;2024-03-02T00:36:00;2.30;99.90
73576;DHT22;61859;49.204;8.140;2024-03-02T00:38:27;2.50;99.90
73576;DHT22;61859;49.204;8.140;2024-03-02T00:40:53;2.20;99.90
73576;DHT22;61859;49.204;8.140;2024-03-02T00:43:39;2.30;99.90
73576;DHT22;61859;49.204;8.140;2024-03-02T00:46:06;2.40;99.90
73576;DHT22;61859;49.204;8.140;2024-03-02T00:48:32;2.10;99.90
73576;DHT22;61859;49.204;8.140;2024-03-02T00:51:01;2.20;99.90
73576;DHT22;61859;49.204;8.140;2024-03-02T00:53:29;2.00;99.90
73576;DHT22;61859;49.204;8.140;2024-03-02T00:55:54;1.90;99.90
73576;DHT22;61859;49.204;8.140;2024-03-02T00:58:20;2.10;99.90
73576;DHT22;61859;49.204;8.140;2024-03-02T01:00:46;2.00;99.90
73576;DHT22;61859;49.204;8.140;2024-03-02T01:03:12;1.80;99.90
73576;DHT22;61859;49.204;8.140;2024-03-02T01:05:41;1.70;99.90
73576;DHT22;61859;49.204;8.140;2024-03-02T01:08:08;1.90;99.90
73576;DHT22;61859;49.204;8.140;2024-03-02T01:10:33;1.80;99.90
73576;DHT22;61859;49.204;8.140;2024-03-02T01:12:59;1.70;99.90
73576;DHT22;61859;49.204;8.140;2024-03-02T01:15:24;1.50;99.90
73576;DHT22;61859;49.204;8.140;2024-03-02T01:17:50;1.70;99.90
73576;DHT22;61859;49.204;8.140;2024-03-02T01:20:15;1.60;99.90
73576;DHT22;61859;49.204;8.140;2024-03-02T01:22:41;1.50;99.90
73576;DHT22;61859;49.204;8.140;2024-03-02T01:25:08;1.50;99.90
73576;DHT22;61859;49.204;8.140;2024-03-02T01:27:34;1.50;99.90
73576;DHT22;61859;49.204;8.140;2024-03-02T01:29:59;1.70;99.90
73576;DHT22;61859;49.204;8.140;2024-03-02T01:32:25;1.60;99.90
73576;DHT22;61859;49.204;8.140;2024-03-02T01:34:51;1.50;99.90
73576;DHT22;61859;49.204;8.140;2024-03-02T01:37:16;1.40;99.90
73576;DHT22;61859;49.204;8.140;2024-03-02T01:39:42;1.60;99.90
73576;DHT22;61859;49.204;8.140;2024-03-02T01:42:07;1.30;99.90
73576;DHT22;61859;49.204;8.140;2024-03-02T01:44:33;1.60;99.90
73576;DHT22;61859;49.204;8.140;2024-03-02T01:46:58;1.40;99.90
73576;DHT22;61859;49.204;8.140;2024-03-02T01:49:24;1.30;99.90
73576;DHT22;61859;49.204;8.140;2024-03-02T01:51:49;1.40;99.90
73576;DHT22;61859;49.204;8.140;2024-03-02T01:54:15;1.40;99.90
73576;DHT22;61859;49.204;8.140;2024-03-02T01:56:41;1.40;99.90
73576;DHT22;61859;49.204;8.140;2024-03-02T01:59:06;1.20;99.90
73576;DHT22;61859;49.204;8.140;2024-03-02T02:01:32;1.20;99.90
73576;DHT22;61859;49.204;8.140;2024-03-02T02:03:57;1.20;99.90
73576;DHT22;61859;49.204;8.140;2024-03-02T02:06:23;1.30;99.90
73576;DHT22;61859;49.204;8.140;2024-03-02T02:08:49;1.10;99.90
73576;DHT22;61859;49.204;8.140;2024-03-02T02:11:15;1.00;99.90
73576;DHT22;61859;49.204;8.140;2024-03-02T02:13:41;0.90;99.90
73576;DHT22;61859;49.204;8.140;2024-03-02T02:16:07;1.00;99.90
73576;DHT22;61859;49.204;8.140;2024-03-02T02:18:33;1.00;99.90
73576;DHT22;61859;49.204;8.140;2024-03-02T02:20:59;1.00;99.90
73576;DHT22;61859;49.204;8.140;2024-03-02T02:23:25;0.80;99.90
73576;DHT22;61859;49.204;8.140;2024-03-02T02:25:50;0.90;99.90
73576;DHT22;61859;49.204;8.140;2024-03-02T02:28:16;0.60;99.90
73576;DHT22;61859;49.204;8.140;2024-03-02T02:30:42;1.00;99.90
73576;DHT22;61859;49.204;8.140;2024-03-02T02:33:08;0.90;99.90
73576;DHT22;61859;49.204;8.140;2024-03-02T02:35:34;0.80;99.90
73576;DHT22;61859;49.204;8.140;2024-03-02T02:38:00;0.80;99.90
73576;DHT22;61859;49.204;8.140;2024-03-02T02:40:26;0.70;99.90
73576;DHT22;61859;49.204;8.140;2024-03-02T02:42:52;0.80;99.90
73576;DHT22;61859;49.204;8.140;2024-03-02T02:45:18;0.60;99.90
73576;DHT22;61859;49.204;8.140;2024-03-02T02:47:44;0.80;99.90
73576;DHT22;61859;49.204;8.140;2024-03-02T02:50:11;0.70;99.90
73576;DHT22;61859;49.204;8.140;2024-03-02T02:52:39;0.70;99.90
73576;DHT22;61859;49.204;8.140;2024-03-02T02:55:07;0.60;99.90
73576;DHT22;61859;49.204;8.140;2024-03-02T02:57:33;0.70;99.90
73576;DHT22;61859;49.204;8.140;2024-03-02T03:00:10;0.50;99.90
73576;DHT22;61859;49.204;8.140;2024-03-02T03:02:39;0.60;99.90
73576;DHT22;61859;49.204;8.140;2024-03-02T03:05:07;0.60;99.90
73576;DHT22;61859;49.204;8.140;2024-03-02T03:07:33;0.50;99.90
73576;DHT22;61859;49.204;8.140;2024-03-02T03:10:03;0.50;99.90
73576;DHT22;61859;49.204;8.140;2024-03-02T03:12:30;0.50;99.90
73576;DHT22;61859;49.204;8.140;2024-03-02T03:14:56;0.40;99.90
73576;DHT22;61859;49.204;8.140;2024-03-02T03:17:22;0.40;99.90
73576;DHT22;61859;49.204;8.140;2024-03-02T03:19:49;0.30;99.90
73576;DHT22;61859;49.204;8.140;2024-03-02T03:22:14;0.40;99.90
73576;DHT22;61859;49.204;8.140;2024-03-02T03:24:40;0.30;99.90
73576;DHT22;61859;49.204;8.140;2024-03-02T03:27:06;0.60;99.90
73576;DHT22;61859;49.204;8.140;2024-03-02T03:29:32;0.40;99.90
73576;DHT22;61859;49.204;8.140;2024-03-02T03:31:57;0.60;99.90
73576;DHT22;61859;49.204;8.140;2024-03-02T03:34:23;0.50;99.90
73576;DHT22;61859;49.204;8.140;2024-03-02T03:36:48;0.40;99.90
73576;DHT22;61859;49.204;8.140;2024-03-02T03:39:14;0.30;99.90
73576;DHT22;61859;49.204;8.140;2024-03-02T03:41:40;0.20;99.90
73576;DHT22;61859;49.204;8.140;2024-03-02T03:44:06;0.40;99.90
73576;DHT22;61859;49.204;8.140;2024-03-02T03:46:31;0.30;99.90
73576;DHT22;61859;49.204;8.140;2024-03-02T03:48:57;0.20;99.90
73576;DHT22;61859;49.204;8.140;2024-03-02T03:51:22;0.00;99.90
73576;DHT22;61859;49.204;8.140;2024-03-02T03:53:48;0.00;99.90
73576;DHT22;61859;49.204;8.140;2024-03-02T03:56:14;0.00;99.90
73576;DHT22;61859;49.204;8.140;2024-03-02T03:58:39;0.00;99.90
73576;DHT22;61859;49.204;8.140;2024-03-02T04:01:05;0.00;99.90
73576;DHT22;61859;49.204;8.140;2024-03-02T04:03:30;0.00;99.90
73576;DHT22;61859;49.204;8.140;2024-03-02T04:05:56;0.10;99.90
73576;DHT22;61859;49.204;8.140;2024-03-02T04:08:22;0.00;99.90
73576;DHT22;61859;49.204;8.140;2024-03-02T04:10:47;0.00;99.90
73576;DHT22;61859;49.204;8.140;2024-03-02T04:13:13;-0.10;99.90
73576;DHT22;61859;49.204;8.140;2024-03-02T04:15:38;0.00;99.90
73576;DHT22;61859;49.204;8.140;2024-03-02T04:18:06;-0.10;99.90
73576;DHT22;61859;49.204;8.140;2024-03-02T04:20:31;0.00;99.90
73576;DHT22;61859;49.204;8.140;2024-03-02T04:22:57;-0.10;99.90
73576;DHT22;61859;49.204;8.140;2024-03-02T04:25:22;0.20;99.90
73576;DHT22;61859;49.204;8.140;2024-03-02T04:27:48;0.00;99.90
73576;DHT22;61859;49.204;8.140;2024-03-02T04:30:14;0.10;99.90
73576;DHT22;61859;49.204;8.140;2024-03-02T04:32:39;0.10;99.90
73576;DHT22;61859;49.204;8.140;2024-03-02T04:35:05;0.10;99.90
73576;DHT22;61859;49.204;8.140;2024-03-02T04:37:34;0.00;99.90
73576;DHT22;61859;49.204;8.140;2024-03-02T04:40:00;0.40;99.90
73576;DHT22;61859;49.204;8.140;2024-03-02T04:42:26;0.40;99.90
73576;DHT22;61859;49.204;8.140;2024-03-02T04:44:51;0.50;99.90
73576;DHT22;61859;49.204;8.140;2024-03-02T04:47:17;0.70;99.90
73576;DHT22;61859;49.204;8.140;2024-03-02T04:49:42;0.70;99.90
73576;DHT22;61859;49.204;8.140;2024-03-02T04:52:08;0.70;99.90
73576;DHT22;61859;49.204;8.140;2024-03-02T04:54:34;0.80;99.90
73576;DHT22;61859;49.204;8.140;2024-03-02T04:57:19;1.00;99.90
73576;DHT22;61859;49.204;8.140;2024-03-02T04:59:45;1.10;99.90
73576;DHT22;61859;49.204;8.140;2024-03-02T05:02:10;1.20;99.90
73576;DHT22;61859;49.204;8.140;2024-03-02T05:04:36;1.30;99.90
73576;DHT22;61859;49.204;8.140;2024-03-02T05:07:01;1.50;99.90
73576;DHT22;61859;49.204;8.140;2024-03-02T05:09:27;1.60;99.90
73576;DHT22;61859;49.204;8.140;2024-03-02T05:11:53;1.50;99.90
73576;DHT22;61859;49.204;8.140;2024-03-02T05:14:37;1.80;99.90
73576;DHT22;61859;49.204;8.140;2024-03-02T05:17:04;1.90;99.90
73576;DHT22;61859;49.204;8.140;2024-03-02T05:19:29;1.80;99.90
73576;DHT22;61859;49.204;8.140;2024-03-02T05:21:55;1.80;99.90
73576;DHT22;61859;49.204;8.140;2024-03-02T05:24:20;1.90;99.90
73576;DHT22;61859;49.204;8.140;2024-03-02T05:26:46;2.20;99.90
73576;DHT22;61859;49.204;8.140;2024-03-02T05:29:11;2.10;99.90
73576;DHT22;61859;49.204;8.140;2024-03-02T05:31:37;2.20;99.90
73576;DHT22;61859;49.204;8.140;2024-03-02T05:34:02;2.20;99.90
73576;DHT22;61859;49.204;8.140;2024-03-02T05:36:28;2.30;99.90
73576;DHT22;61859;49.204;8.140;2024-03-02T05:38:53;2.10;99.90
73576;DHT22;61859;49.204;8.140;2024-03-02T05:41:19;2.40;99.90
73576;DHT22;61859;49.204;8.140;2024-03-02T05:43:44;2.40;99.90
73576;DHT22;61859;49.204;8.140;2024-03-02T05:46:10;2.30;99.90
73576;DHT22;61859;49.204;8.140;2024-03-02T05:48:35;2.10;99.90
73576;DHT22;61859;49.204;8.140;2024-03-02T05:51:01;2.20;99.90
73576;DHT22;61859;49.204;8.140;2024-03-02T05:53:26;2.10;99.90
73576;DHT22;61859;49.204;8.140;2024-03-02T05:55:52;2.10;99.90
73576;DHT22;61859;49.204;8.140;2024-03-02T05:58:21;2.00;99.90
73576;DHT22;61859;49.204;8.140;2024-03-02T06:01:03;2.10;99.90
73576;DHT22;61859;49.204;8.140;2024-03-02T06:03:30;1.90;99.90
73576;DHT22;61859;49.204;8.140;2024-03-02T06:05:55;2.10;99.90
73576;DHT22;61859;49.204;8.140;2024-03-02T06:08:21;2.00;99.90
73576;DHT22;61859;49.204;8.140;2024-03-02T06:10:46;2.20;99.90
73576;DHT22;61859;49.204;8.140;2024-03-02T06:13:12;2.30;99.90
73576;DHT22;61859;49.204;8.140;2024-03-02T06:15:38;2.00;99.90
73576;DHT22;61859;49.204;8.140;2024-03-02T06:18:03;2.40;99.90
73576;DHT22;61859;49.204;8.140;2024-03-02T06:20:29;2.50;99.90
73576;DHT22;61859;49.204;8.140;2024-03-02T06:22:56;2.60;99.90
73576;DHT22;61859;49.204;8.140;2024-03-02T06:25:22;2.60;99.90
73576;DHT22;61859;49.204;8.140;2024-03-02T06:27:47;2.70;99.90
73576;DHT22;61859;49.204;8.140;2024-03-02T06:30:13;2.60;99.90
73576;DHT22;61859;49.204;8.140;2024-03-02T06:32:38;2.90;99.90
73576;DHT22;61859;49.204;8.140;2024-03-02T06:35:04;2.80;99.90
73576;DHT22;61859;49.204;8.140;2024-03-02T06:37:32;3.00;99.90
73576;DHT22;61859;49.204;8.140;2024-03-02T06:39:57;3.00;99.90
73576;DHT22;61859;49.204;8.140;2024-03-02T06:42:23;3.30;99.90
73576;DHT22;61859;49.204;8.140;2024-03-02T06:44:49;3.10;99.90
73576;DHT22;61859;49.204;8.140;2024-03-02T06:47:15;3.40;99.90
73576;DHT22;61859;49.204;8.140;2024-03-02T06:49:42;3.50;99.90
73576;DHT22;61859;49.204;8.140;2024-03-02T06:52:07;3.50;99.90
73576;DHT22;61859;49.204;8.140;2024-03-02T06:54:33;3.60;99.90
73576;DHT22;61859;49.204;8.140;2024-03-02T06:57:00;3.70;99.90
73576;DHT22;61859;49.204;8.140;2024-03-02T06:59:25;3.90;99.90
73576;DHT22;61859;49.204;8.140;2024-03-02T07:01:51;3.90;99.90
73576;DHT22;61859;49.204;8.140;2024-03-02T07:04:16;4.00;99.90
73576;DHT22;61859;49.204;8.140;2024-03-02T07:06:42;4.50;99.90
73576;DHT22;61859;49.204;8.140;2024-03-02T07:09:07;4.70;99.90
73576;DHT22;61859;49.204;8.140;2024-03-02T07:11:36;4.90;99.90
73576;DHT22;61859;49.204;8.140;2024-03-02T07:14:01;5.00;99.70
73576;DHT22;61859;49.204;8.140;2024-03-02T07:16:27;5.00;99.40
73576;DHT22;61859;49.204;8.140;2024-03-02T07:18:58;5.20;98.50
73576;DHT22;61859;49.204;8.140;2024-03-02T07:21:24;5.20;98.60
73576;DHT22;61859;49.204;8.140;2024-03-02T07:23:50;5.30;98.80
73576;DHT22;61859;49.204;8.140;2024-03-02T07:26:16;5.40;98.80
73576;DHT22;61859;49.204;8.140;2024-03-02T07:28:43;5.60;97.80
73576;DHT22;61859;49.204;8.140;2024-03-02T07:31:09;5.80;97.20
73576;DHT22;61859;49.204;8.140;2024-03-02T07:33:35;6.10;96.00
73576;DHT22;61859;49.204;8.140;2024-03-02T07:36:01;6.10;95.50
73576;DHT22;61859;49.204;8.140;2024-03-02T07:38:28;6.10;95.70
73576;DHT22;61859;49.204;8.140;2024-03-02T07:40:54;6.30;95.20
73576;DHT22;61859;49.204;8.140;2024-03-02T07:43:20;6.30;95.20
73576;DHT22;61859;49.204;8.140;2024-03-02T07:45:46;6.20;95.20
73576;DHT22;61859;49.204;8.140;2024-03-02T07:48:12;6.30;95.70
73576;DHT22;61859;49.204;8.140;2024-03-02T07:50:37;6.40;96.70
73576;DHT22;61859;49.204;8.140;2024-03-02T07:53:04;6.60;96.70
73576;DHT22;61859;49.204;8.140;2024-03-02T07:55:30;6.60;96.50
73576;DHT22;61859;49.204;8.140;2024-03-02T07:57:56;6.70;96.70
73576;DHT22;61859;49.204;8.140;2024-03-02T08:00:22;7.40;95.70
73576;DHT22;61859;49.204;8.140;2024-03-02T08:02:49;7.80;94.20
73576;DHT22;61859;49.204;8.140;2024-03-02T08:05:16;8.10;92.60
73576;DHT22;61859;49.204;8.140;2024-03-02T08:07:43;8.30;91.90
73576;DHT22;61859;49.204;8.140;2024-03-02T08:10:09;8.50;90.70
73576;DHT22;61859;49.204;8.140;2024-03-02T08:12:35;8.60;87.20
73576;DHT22;61859;49.204;8.140;2024-03-02T08:15:00;8.80;87.20
73576;DHT22;61859;49.204;8.140;2024-03-02T08:17:26;9.00;86.00
73576;DHT22;61859;49.204;8.140;2024-03-02T08:19:52;9.10;84.00
73576;DHT22;61859;49.204;8.140;2024-03-02T08:22:18;9.70;83.20
73576;DHT22;61859;49.204;8.140;2024-03-02T08:24:44;11.00;80.00
73576;DHT22;61859;49.204;8.140;2024-03-02T08:27:10;11.60;76.90
73576;DHT22;61859;49.204;8.140;2024-03-02T08:29:35;11.90;75.70
73576;DHT22;61859;49.204;8.140;2024-03-02T08:32:01;11.60;75.30
73576;DHT22;61859;49.204;8.140;2024-03-02T08:34:26;11.20;76.50
73576;DHT22;61859;49.204;8.140;2024-03-02T08:36:52;11.00;77.40
73576;DHT22;61859;49.204;8.140;2024-03-02T08:39:18;10.80;77.70
73576;DHT22;61859;49.204;8.140;2024-03-02T08:41:45;10.60;77.40
73576;DHT22;61859;49.204;8.140;2024-03-02T08:44:11;10.80;79.10
73576;DHT22;61859;49.204;8.140;2024-03-02T08:46:38;11.40;76.00
73576;DHT22;61859;49.204;8.140;2024-03-02T08:49:04;11.90;73.30
73576;DHT22;61859;49.204;8.140;2024-03-02T08:51:29;11.90;72.80
73576;DHT22;61859;49.204;8.140;2024-03-02T08:53:56;11.30;73.40
73576;DHT22;61859;49.204;8.140;2024-03-02T08:56:22;10.80;74.90
73576;DHT22;61859;49.204;8.140;2024-03-02T08:58:49;10.70;76.50
73576;DHT22;61859;49.204;8.140;2024-03-02T09:01:15;11.10;76.60
73576;DHT22;61859;49.204;8.140;2024-03-02T09:03:42;11.90;75.00
73576;DHT22;61859;49.204;8.140;2024-03-02T09:06:10;12.60;73.30
73576;DHT22;61859;49.204;8.140;2024-03-02T09:08:36;13.00;70.30
73576;DHT22;61859;49.204;8.140;2024-03-02T09:11:03;13.40;69.30
73576;DHT22;61859;49.204;8.140;2024-03-02T09:13:29;13.40;68.80
73576;DHT22;61859;49.204;8.140;2024-03-02T09:15:55;13.50;68.60
73576;DHT22;61859;49.204;8.140;2024-03-02T09:18:20;13.50;69.30
73576;DHT22;61859;49.204;8.140;2024-03-02T09:20:46;13.60;69.00
73576;DHT22;61859;49.204;8.140;2024-03-02T09:23:11;13.80;68.80
73576;DHT22;61859;49.204;8.140;2024-03-02T09:25:37;14.30;67.10
73576;DHT22;61859;49.204;8.140;2024-03-02T09:28:03;14.90;65.20
73576;DHT22;61859;49.204;8.140;2024-03-02T09:30:28;15.00;63.10
73576;DHT22;61859;49.204;8.140;2024-03-02T09:32:54;15.10;63.70
73576;DHT22;61859;49.204;8.140;2024-03-02T09:35:20;14.90;64.40
73576;DHT22;61859;49.204;8.140;2024-03-02T09:37:45;15.00;64.40
73576;DHT22;61859;49.204;8.140;2024-03-02T09:40:12;14.80;64.50
73576;DHT22;61859;49.204;8.140;2024-03-02T09:42:39;14.70;64.80
73576;DHT22;61859;49.204;8.140;2024-03-02T09:45:05;14.80;64.60
73576;DHT22;61859;49.204;8.140;2024-03-02T09:47:31;14.80;63.60
73576;DHT22;61859;49.204;8.140;2024-03-02T09:49:57;14.90;63.80
73576;DHT22;61859;49.204;8.140;2024-03-02T09:52:23;15.10;63.40
73576;DHT22;61859;49.204;8.140;2024-03-02T09:54:50;15.30;63.50
73576;DHT22;61859;49.204;8.140;2024-03-02T09:57:15;15.70;61.40
73576;DHT22;61859;49.204;8.140;2024-03-02T09:59:41;16.10;59.80
73576;DHT22;61859;49.204;8.140;2024-03-02T10:02:07;16.70;59.40
73576;DHT22;61859;49.204;8.140;2024-03-02T10:04:33;16.90;57.40
73576;DHT22;61859;49.204;8.140;2024-03-02T10:07:15;17.20;56.00
73576;DHT22;61859;49.204;8.140;2024-03-02T10:09:42;17.10;55.80
73576;DHT22;61859;49.204;8.140;2024-03-02T10:12:09;17.10;57.10
73576;DHT22;61859;49.204;8.140;2024-03-02T10:14:35;17.00;57.10
73576;DHT22;61859;49.204;8.140;2024-03-02T10:17:07;16.90;57.10
73576;DHT22;61859;49.204;8.140;2024-03-02T10:19:34;16.50;57.20
73576;DHT22;61859;49.204;8.140;2024-03-02T10:22:01;15.90;58.80
73576;DHT22;61859;49.204;8.140;2024-03-02T10:24:28;15.80;59.60
73576;DHT22;61859;49.204;8.140;2024-03-02T10:26:59;15.60;59.90
73576;DHT22;61859;49.204;8.140;2024-03-02T10:29:25;15.60;59.90
73576;DHT22;61859;49.204;8.140;2024-03-02T10:31:54;15.80;59.70
73576;DHT22;61859;49.204;8.140;2024-03-02T10:34:19;16.00;59.60
73576;DHT22;61859;49.204;8.140;2024-03-02T10:36:47;16.20;59.90
73576;DHT22;61859;49.204;8.140;2024-03-02T10:39:14;16.60;58.20
73576;DHT22;61859;49.204;8.140;2024-03-02T10:41:40;16.80;58.50
73576;DHT22;61859;49.204;8.140;2024-03-02T10:44:07;17.10;55.90
73576;DHT22;61859;49.204;8.140;2024-03-02T10:46:35;17.30;54.70
73576;DHT22;61859;49.204;8.140;2024-03-02T10:49:01;18.00;54.30
73576;DHT22;61859;49.204;8.140;2024-03-02T10:51:28;18.50;51.30
73576;DHT22;61859;49.204;8.140;2024-03-02T10:53:59;18.90;50.20
73576;DHT22;61859;49.204;8.140;2024-03-02T10:59:17;19.40;48.90
73576;DHT22;61859;49.204;8.140;2024-03-02T11:01:48;19.60;49.20
73576;DHT22;61859;49.204;8.140;2024-03-02T11:04:16;19.80;48.40
73576;DHT22;61859;49.204;8.140;2024-03-02T11:06:48;20.00;48.50
73576;DHT22;61859;49.204;8.140;2024-03-02T11:09:15;20.40;46.60
73576;DHT22;61859;49.204;8.140;2024-03-02T11:11:43;20.50;46.50
73576;DHT22;61859;49.204;8.140;2024-03-02T11:14:14;20.40;47.00
73576;DHT22;61859;49.204;8.140;2024-03-02T11:16:42;20.20;47.10
73576;DHT22;61859;49.204;8.140;2024-03-02T11:19:13;20.20;47.40
73576;DHT22;61859;49.204;8.140;2024-03-02T11:21:39;20.20;47.60
73576;DHT22;61859;49.204;8.140;2024-03-02T11:27:05;20.00;47.40
73576;DHT22;61859;49.204;8.140;2024-03-02T11:32:03;20.50;46.30
73576;DHT22;61859;49.204;8.140;2024-03-02T11:36:55;21.60;43.70
73576;DHT22;61859;49.204;8.140;2024-03-02T11:39:20;21.90;42.00
73576;DHT22;61859;49.204;8.140;2024-03-02T11:41:46;22.30;42.10
73576;DHT22;61859;49.204;8.140;2024-03-02T11:44:11;22.70;42.10
73576;DHT22;61859;49.204;8.140;2024-03-02T11:46:39;23.30;40.40
73576;DHT22;61859;49.204;8.140;2024-03-02T11:49:05;23.10;40.80
73576;DHT22;61859;49.204;8.140;2024-03-02T11:51:33;23.20;40.30
73576;DHT22;61859;49.204;8.140;2024-03-02T11:54:01;23.40;40.70
73576;DHT22;61859;49.204;8.140;2024-03-02T11:56:28;24.10;40.20
73576;DHT22;61859;49.204;8.140;2024-03-02T11:58:56;24.60;39.10
73576;DHT22;61859;49.204;8.140;2024-03-02T12:01:23;25.50;38.30
73576;DHT22;61859;49.204;8.140;2024-03-02T12:03:48;26.20;37.20
73576;DHT22;61859;49.204;8.140;2024-03-02T12:06:15;26.90;37.00
73576;DHT22;61859;49.204;8.140;2024-03-02T12:08:40;27.10;36.20
73576;DHT22;61859;49.204;8.140;2024-03-02T12:11:06;27.10;36.70
73576;DHT22;61859;49.204;8.140;2024-03-02T12:13:32;27.20;36.90
73576;DHT22;61859;49.204;8.140;2024-03-02T12:15:58;27.50;36.10
73576;DHT22;61859;49.204;8.140;2024-03-02T12:18:24;27.50;36.30
73576;DHT22;61859;49.204;8.140;2024-03-02T12:20:51;27.30;36.40
73576;DHT22;61859;49.204;8.140;2024-03-02T12:23:23;27.30;37.10
73576;DHT22;61859;49.204;8.140;2024-03-02T12:25:49;27.60;35.80
73576;DHT22;61859;49.204;8.140;2024-03-02T12:28:15;27.40;35.80
73576;DHT22;61859;49.204;8.140;2024-03-02T12:30:41;27.30;36.30
73576;DHT22;61859;49.204;8.140;2024-03-02T12:33:07;27.70;35.80
73576;DHT22;61859;49.204;8.140;2024-03-02T12:35:32;28.00;35.60
73576;DHT22;61859;49.204;8.140;2024-03-02T12:37:58;28.20;35.80
73576;DHT22;61859;49.204;8.140;2024-03-02T12:40:23;28.60;35.10
73576;DHT22;61859;49.204;8.140;2024-03-02T12:42:49;28.90;34.70
73576;DHT22;61859;49.204;8.140;2024-03-02T12:45:16;28.90;34.80
73576;DHT22;61859;49.204;8.140;2024-03-02T12:47:42;29.10;34.70
73576;DHT22;61859;49.204;8.140;2024-03-02T12:50:08;29.30;34.40
73576;DHT22;61859;49.204;8.140;2024-03-02T12:52:34;29.50;34.20
73576;DHT22;61859;49.204;8.140;2024-03-02T12:55:02;29.60;34.30
73576;DHT22;61859;49.204;8.140;2024-03-02T12:57:30;29.90;34.10
73576;DHT22;61859;49.204;8.140;2024-03-02T13:00:00;29.60;33.90
73576;DHT22;61859;49.204;8.140;2024-03-02T13:02:30;29.50;33.90
73576;DHT22;61859;49.204;8.140;2024-03-02T13:04:57;29.30;33.70
73576;DHT22;61859;49.204;8.140;2024-03-02T13:07:26;28.60;34.00
73576;DHT22;61859;49.204;8.140;2024-03-02T13:09:52;28.20;35.10
73576;DHT22;61859;49.204;8.140;2024-03-02T13:12:19;28.40;34.80
73576;DHT22;61859;49.204;8.140;2024-03-02T13:14:47;28.30;34.70
73576;DHT22;61859;49.204;8.140;2024-03-02T13:17:13;27.90;34.50
73576;DHT22;61859;49.204;8.140;2024-03-02T13:22:21;27.30;34.80
73576;DHT22;61859;49.204;8.140;2024-03-02T13:24:47;26.70;35.30
73576;DHT22;61859;49.204;8.140;2024-03-02T13:27:13;26.40;35.40
73576;DHT22;61859;49.204;8.140;2024-03-02T13:29:39;25.80;35.80
73576;DHT22;61859;49.204;8.140;2024-03-02T13:32:05;25.80;36.50
73576;DHT22;61859;49.204;8.140;2024-03-02T13:34:30;26.20;36.30
73576;DHT22;61859;49.204;8.140;2024-03-02T13:36:56;26.60;35.90
73576;DHT22;61859;49.204;8.140;2024-03-02T13:39:21;27.10;34.60
73576;DHT22;61859;49.204;8.140;2024-03-02T13:41:47;27.30;35.10
73576;DHT22;61859;49.204;8.140;2024-03-02T13:44:19;27.70;34.70
73576;DHT22;61859;49.204;8.140;2024-03-02T13:46:44;27.50;34.70
73576;DHT22;61859;49.204;8.140;2024-03-02T13:49:11;27.50;34.40
73576;DHT22;61859;49.204;8.140;2024-03-02T13:51:37;27.20;34.40
73576;DHT22;61859;49.204;8.140;2024-03-02T13:54:03;26.80;35.30
73576;DHT22;61859;49.204;8.140;2024-03-02T13:56:29;26.50;35.70
73576;DHT22;61859;49.204;8.140;2024-03-02T13:58:55;26.30;35.30
73576;DHT22;61859;49.204;8.140;2024-03-02T14:01:20;25.90;35.50
73576;DHT22;61859;49.204;8.140;2024-03-02T14:03:46;25.50;35.40
73576;DHT22;61859;49.204;8.140;2024-03-02T14:06:12;25.20;35.80
73576;DHT22;61859;49.204;8.140;2024-03-02T14:08:38;24.70;36.50
73576;DHT22;61859;49.204;8.140;2024-03-02T14:11:03;24.00;37.20
73576;DHT22;61859;49.204;8.140;2024-03-02T14:13:30;23.50;37.70
73576;DHT22;61859;49.204;8.140;2024-03-02T14:15:56;23.10;38.10
73576;DHT22;61859;49.204;8.140;2024-03-02T14:18:21;22.40;38.80
73576;DHT22;61859;49.204;8.140;2024-03-02T14:20:47;22.20;39.70
73576;DHT22;61859;49.204;8.140;2024-03-02T14:23:18;21.90;39.70
73576;DHT22;61859;49.204;8.140;2024-03-02T14:25:45;21.90;40.20
73576;DHT22;61859;49.204;8.140;2024-03-02T14:28:10;21.70;39.70
73576;DHT22;61859;49.204;8.140;2024-03-02T14:30:37;21.50;40.20
73576;DHT22;61859;49.204;8.140;2024-03-02T14:33:03;21.40;40.80
73576;DHT22;61859;49.204;8.140;2024-03-02T14:35:28;21.30;41.20
73576;DHT22;61859;49.204;8.140;2024-03-02T14:37:54;21.20;41.80
73576;DHT22;61859;49.204;8.140;2024-03-02T14:40:20;20.90;42.50
73576;DHT22;61859;49.204;8.140;2024-03-02T14:42:47;20.40;43.30
73576;DHT22;61859;49.204;8.140;2024-03-02T14:45:13;20.00;44.10
73576;DHT22;61859;49.204;8.140;2024-03-02T14:47:39;19.80;44.50
73576;DHT22;61859;49.204;8.140;2024-03-02T14:50:05;19.60;45.00
73576;DHT22;61859;49.204;8.140;2024-03-02T14:52:35;19.30;45.90
73576;DHT22;61859;49.204;8.140;2024-03-02T14:55:01;19.00;46.30
73576;DHT22;61859;49.204;8.140;2024-03-02T14:57:28;18.90;46.50
73576;DHT22;61859;49.204;8.140;2024-03-02T14:59:53;18.70;47.30
73576;DHT22;61859;49.204;8.140;2024-03-02T15:02:20;18.60;47.70
73576;DHT22;61859;49.204;8.140;2024-03-02T15:04:45;18.50;48.90
73576;DHT22;61859;49.204;8.140;2024-03-02T15:07:13;18.30;49.10
73576;DHT22;61859;49.204;8.140;2024-03-02T15:09:38;18.00;49.50
73576;DHT22;61859;49.204;8.140;2024-03-02T15:12:04;17.60;49.80
73576;DHT22;61859;49.204;8.140;2024-03-02T15:14:31;17.50;50.20
73576;DHT22;61859;49.204;8.140;2024-03-02T15:16:57;17.30;51.00
73576;DHT22;61859;49.204;8.140;2024-03-02T15:19:23;17.30;51.30
73576;DHT22;61859;49.204;8.140;2024-03-02T15:21:48;17.10;52.30
73576;DHT22;61859;49.204;8.140;2024-03-02T15:24:14;16.90;52.10
73576;DHT22;61859;49.204;8.140;2024-03-02T15:26:39;16.80;52.40
73576;DHT22;61859;49.204;8.140;2024-03-02T15:29:05;16.70;52.80
73576;DHT22;61859;49.204;8.140;2024-03-02T15:31:30;16.60;53.30
73576;DHT22;61859;49.204;8.140;2024-03-02T15:33:56;16.50;53.60
73576;DHT22;61859;49.204;8.140;2024-03-02T15:36:22;16.40;54.20
73576;DHT22;61859;49.204;8.140;2024-03-02T15:38:48;16.20;54.30
73576;DHT22;61859;49.204;8.140;2024-03-02T15:41:14;16.30;54.70
73576;DHT22;61859;49.204;8.140;2024-03-02T15:43:39;16.20;55.10
73576;DHT22;61859;49.204;8.140;2024-03-02T15:46:07;16.00;55.50
73576;DHT22;61859;49.204;8.140;2024-03-02T15:48:33;16.00;55.70